Terminal Aerodrome Forecast
Issued by NWS

Home | Current Version | Previous Version | Text Only | Print | Product List | Glossary On
Versions: 1 2 3 4 5 6 7 8 9 10 11 12 13 14 15 16 17 18 19 20
000
FTUS41 KCAR 042355
TAFFVE
TAF
KFVE 042355Z 0500/0524 25012G20KT P6SM BKN070
     FM050300 29009KT P6SM -SN SCT025 OVC035
     FM050700 30010G20KT P6SM SCT030
     FM051500 31015G25KT P6SM SCT120=

USA.gov is the U.S. government's official web portal to all federal, state and local government web resources and services.